Time;durP1;ratioP1;P1;durP2;ratioP2;P2;SDS_P1;SDS_P2;PMS_P1;PMS_P2;Temp;Humidity;BMP_temperature;BMP_pressure;BME280_temperature;BME280_humidity;BME280_pressure;Samples;Min_cycle;Max_cycle;Signal;HPM_P1;HPM_P2
2021/08/01 00:01:01;;;;;;;13.55;11.88;;;;;;;;;;5138975;27;20054;-79
2021/08/01 00:03:27;;;;;;;16.52;13.50;;;;;;;;;;5120478;27;20027;-80
2021/08/01 00:05:53;;;;;;;14.93;12.40;;;;;;;;;;5138581;27;20177;-80
2021/08/01 00:08:19;;;;;;;16.52;12.25;;;;;;;;;;5138286;27;20031;-80
2021/08/01 00:10:44;;;;;;;14.10;12.20;;;;;;;;;;5138421;27;20463;-79
2021/08/01 00:13:10;;;;;;;13.95;9.48;;;;;;;;;;5138283;27;20412;-79
2021/08/01 00:15:36;;;;;;;15.38;11.02;;;;;;;;;;5138674;27;20023;-79
2021/08/01 00:18:02;;;;;;;11.82;7.93;;;;;;;;;;5138102;27;20384;-81
2021/08/01 00:20:28;;;;;;;16.23;11.60;;;;;;;;;;5138393;27;20050;-81
2021/08/01 00:22:54;;;;;;;13.52;11.02;;;;;;;;;;5138165;27;20028;-80
2021/08/01 00:25:22;;;;;;;14.52;12.60;;;;;;;;;;5119733;27;20027;-80
2021/08/01 00:27:49;;;;;;;14.38;11.27;;;;;;;;;;5137889;27;20102;-79
2021/08/01 00:30:15;;;;;;;16.25;9.82;;;;;;;;;;5138127;27;20378;-79
2021/08/01 00:32:41;;;;;;;12.98;10.38;;;;;;;;;;5137985;27;20023;-80
2021/08/01 00:35:08;;;;;;;14.95;13.20;;;;;;;;;;5137857;27;20027;-79
2021/08/01 00:37:33;;;;;;;14.50;12.70;;;;;;;;;;5138023;27;20015;-78
2021/08/01 00:40:00;;;;;;;16.55;9.98;;;;;;;;;;5137826;27;20019;-79
2021/08/01 00:42:26;;;;;;;17.92;13.63;;;;;;;;;;5119468;27;20024;-78
2021/08/01 00:44:53;;;;;;;14.10;12.60;;;;;;;;;;5138133;27;20019;-79
2021/08/01 00:47:22;;;;;;;15.80;13.07;;;;;;;;;;5140347;27;20072;-79
2021/08/01 00:49:48;;;;;;;13.93;12.43;;;;;;;;;;5149103;27;20030;-79
2021/08/01 00:52:16;;;;;;;13.68;10.75;;;;;;;;;;5137598;27;20068;-78
2021/08/01 00:54:41;;;;;;;14.40;11.57;;;;;;;;;;5137512;27;20032;-79
2021/08/01 00:57:07;;;;;;;13.93;11.75;;;;;;;;;;5137538;27;20027;-79
2021/08/01 00:59:35;;;;;;;14.98;11.18;;;;;;;;;;5137621;27;20030;-80
2021/08/01 01:02:07;;;;;;;13.98;11.02;;;;;;;;;;5137553;27;20026;-79
2021/08/01 01:04:50;;;;;;;13.38;10.75;;;;;;;;;;5118458;28;20034;-78
2021/08/01 01:07:45;;;;;;;13.15;11.48;;;;;;;;;;5137372;27;20031;-79
2021/08/01 01:10:45;;;;;;;13.93;11.50;;;;;;;;;;5137493;27;20072;-79
2021/08/01 01:13:14;;;;;;;11.82;10.18;;;;;;;;;;5081947;27;20064;-80
2021/08/01 01:15:50;;;;;;;12.52;11.15;;;;;;;;;;5118825;27;20027;-79
2021/08/01 01:18:23;;;;;;;12.68;11.32;;;;;;;;;;5137091;27;20112;-79
2021/08/01 01:21:26;;;;;;;13.10;10.38;;;;;;;;;;5137135;27;20023;-79
2021/08/01 01:24:17;;;;;;;13.75;10.02;;;;;;;;;;5137692;27;20023;-79
2021/08/01 01:27:02;;;;;;;19.38;10.52;;;;;;;;;;5131894;27;20122;-78
2021/08/01 01:29:42;;;;;;;9.68;7.20;;;;;;;;;;5137206;27;20097;-79
2021/08/01 01:32:18;;;;;;;12.52;8.52;;;;;;;;;;5118565;27;20019;-78
2021/08/01 01:34:47;;;;;;;14.30;9.35;;;;;;;;;;5118476;27;20046;-79
2021/08/01 01:37:16;;;;;;;12.50;11.20;;;;;;;;;;5136925;27;20019;-79
2021/08/01 01:39:44;;;;;;;12.35;9.32;;;;;;;;;;5136829;27;20019;-79
2021/08/01 01:42:12;;;;;;;14.13;10.93;;;;;;;;;;5136870;27;20230;-79
2021/08/01 01:44:38;;;;;;;15.27;9.27;;;;;;;;;;5136734;27;20023;-79
2021/08/01 01:47:05;;;;;;;10.43;8.82;;;;;;;;;;5136677;27;20038;-78
2021/08/01 01:49:31;;;;;;;17.52;9.10;;;;;;;;;;5136610;27;20474;-79
2021/08/01 01:51:57;;;;;;;16.30;6.93;;;;;;;;;;5136631;27;20386;-79
2021/08/01 01:54:24;;;;;;;12.40;8.73;;;;;;;;;;5136883;27;20125;-78
2021/08/01 01:56:51;;;;;;;12.90;9.20;;;;;;;;;;5136694;27;20106;-79
2021/08/01 01:59:18;;;;;;;16.58;9.82;;;;;;;;;;5136398;27;20023;-79
2021/08/01 02:01:44;;;;;;;13.98;9.57;;;;;;;;;;5136687;27;20026;-79
2021/08/01 02:04:09;;;;;;;11.65;8.82;;;;;;;;;;5136337;27;20437;-78
2021/08/01 02:06:35;;;;;;;11.93;9.05;;;;;;;;;;5136109;27;20072;-79
2021/08/01 02:09:11;;;;;;;12.32;9.18;;;;;;;;;;5136147;27;20019;-79
2021/08/01 02:11:45;;;;;;;10.20;5.72;;;;;;;;;;5136133;27;20079;-79
2021/08/01 02:14:16;;;;;;;8.85;6.97;;;;;;;;;;5117642;27;20034;-79
2021/08/01 02:16:47;;;;;;;13.25;8.75;;;;;;;;;;5135842;27;20122;-79
2021/08/01 02:19:14;;;;;;;20.38;10.75;;;;;;;;;;5136259;27;20076;-79
2021/08/01 02:21:42;;;;;;;13.23;9.40;;;;;;;;;;5135963;27;20061;-79
2021/08/01 02:24:09;;;;;;;11.15;9.93;;;;;;;;;;5135912;27;20019;-79
2021/08/01 02:26:36;;;;;;;11.43;10.23;;;;;;;;;;5135900;27;20098;-79
2021/08/01 02:29:04;;;;;;;14.02;9.48;;;;;;;;;;5136384;27;20034;-79
2021/08/01 02:31:30;;;;;;;19.13;10.25;;;;;;;;;;5140742;27;20043;-79
2021/08/01 02:33:57;;;;;;;10.25;7.10;;;;;;;;;;5150216;27;20035;-79
2021/08/01 02:36:24;;;;;;;14.43;9.60;;;;;;;;;;5130197;27;20019;-78
2021/08/01 02:38:54;;;;;;;15.35;7.60;;;;;;;;;;5137571;27;20384;-79
2021/08/01 02:41:37;;;;;;;10.13;7.93;;;;;;;;;;5136789;27;20019;-79
2021/08/01 02:44:09;;;;;;;11.13;9.38;;;;;;;;;;5135830;27;20486;-81
2021/08/01 02:46:37;;;;;;;10.93;7.05;;;;;;;;;;5135573;27;20474;-78
2021/08/01 02:49:06;;;;;;;11.60;9.57;;;;;;;;;;5135701;27;20027;-79
2021/08/01 02:51:32;;;;;;;14.40;9.18;;;;;;;;;;5135375;27;20098;-79
2021/08/01 02:54:00;;;;;;;10.20;8.88;;;;;;;;;;5135318;27;20027;-79
2021/08/01 02:56:30;;;;;;;13.95;9.23;;;;;;;;;;5135295;27;20027;-79
2021/08/01 02:58:58;;;;;;;10.38;9.07;;;;;;;;;;5135377;27;20019;-79
2021/08/01 03:01:25;;;;;;;14.80;8.52;;;;;;;;;;5135153;27;20023;-79
2021/08/01 03:03:51;;;;;;;13.02;9.75;;;;;;;;;;5135170;27;20152;-78
2021/08/01 03:06:18;;;;;;;11.57;9.20;;;;;;;;;;5116709;27;20026;-79
2021/08/01 03:08:43;;;;;;;12.75;9.90;;;;;;;;;;5135372;27;20459;-79
2021/08/01 03:11:09;;;;;;;11.13;9.70;;;;;;;;;;5146384;27;20029;-78
2021/08/01 03:13:34;;;;;;;10.65;9.20;;;;;;;;;;5135064;27;20061;-80
2021/08/01 03:16:00;;;;;;;13.52;8.65;;;;;;;;;;5116599;27;20027;-79
2021/08/01 03:18:26;;;;;;;14.90;8.57;;;;;;;;;;5134832;27;20482;-79
2021/08/01 03:20:52;;;;;;;13.82;10.13;;;;;;;;;;5134811;27;20027;-79
2021/08/01 03:23:17;;;;;;;12.88;9.43;;;;;;;;;;5134779;27;20068;-79
2021/08/01 03:25:43;;;;;;;14.25;8.95;;;;;;;;;;5134760;27;20102;-79
2021/08/01 03:28:08;;;;;;;11.60;9.00;;;;;;;;;;5134041;27;20024;-79
2021/08/01 03:30:34;;;;;;;10.80;9.63;;;;;;;;;;5134842;27;20034;-78
2021/08/01 03:33:00;;;;;;;12.35;8.13;;;;;;;;;;5134946;27;20440;-79
2021/08/01 03:35:26;;;;;;;11.30;8.38;;;;;;;;;;5134674;27;20023;-79
2021/08/01 03:37:51;;;;;;;11.13;8.50;;;;;;;;;;5134933;27;20068;-79
2021/08/01 03:40:17;;;;;;;11.50;8.48;;;;;;;;;;5134829;27;20030;-79
2021/08/01 03:42:44;;;;;;;9.65;8.32;;;;;;;;;;5134759;27;20031;-79
2021/08/01 03:45:10;;;;;;;9.52;8.48;;;;;;;;;;5134516;28;20019;-79
2021/08/01 03:47:37;;;;;;;10.45;7.75;;;;;;;;;;5134541;28;20019;-79
2021/08/01 03:50:04;;;;;;;16.58;9.52;;;;;;;;;;5134467;28;20467;-81
2021/08/01 03:52:30;;;;;;;12.43;7.95;;;;;;;;;;5134721;28;20106;-80
2021/08/01 03:54:56;;;;;;;8.27;5.50;;;;;;;;;;5134356;28;20441;-79
2021/08/01 03:57:21;;;;;;;11.55;7.28;;;;;;;;;;5134483;28;20120;-79
2021/08/01 03:59:47;;;;;;;12.45;6.55;;;;;;;;;;5116101;28;20356;-79
2021/08/01 04:02:13;;;;;;;15.88;10.35;;;;;;;;;;5134726;28;20023;-79
2021/08/01 04:04:39;;;;;;;14.88;11.65;;;;;;;;;;5134370;28;20027;-79
2021/08/01 04:07:05;;;;;;;15.13;11.75;;;;;;;;;;5134324;28;20031;-79
2021/08/01 04:09:31;;;;;;;12.23;10.98;;;;;;;;;;5134428;28;20166;-79
2021/08/01 04:11:57;;;;;;;11.98;8.23;;;;;;;;;;5134656;28;20059;-79
2021/08/01 04:14:24;;;;;;;12.07;8.07;;;;;;;;;;5134318;28;20050;-79
2021/08/01 04:16:50;;;;;;;17.52;11.27;;;;;;;;;;5134087;28;20087;-79
2021/08/01 04:19:15;;;;;;;12.13;9.63;;;;;;;;;;5134255;28;20098;-79
2021/08/01 04:21:42;;;;;;;13.77;11.15;;;;;;;;;;5115831;28;20023;-78
2021/08/01 04:24:08;;;;;;;13.05;11.65;;;;;;;;;;5134388;28;20016;-79
2021/08/01 04:26:34;;;;;;;10.88;8.10;;;;;;;;;;5134254;27;20083;-79
2021/08/01 04:29:00;;;;;;;16.48;9.68;;;;;;;;;;5134880;27;20022;-79
2021/08/01 04:31:25;;;;;;;12.52;9.68;;;;;;;;;;5130960;28;20098;-79
2021/08/01 04:33:51;;;;;;;12.95;8.98;;;;;;;;;;5134258;28;20050;-80
2021/08/01 04:36:17;;;;;;;14.38;10.43;;;;;;;;;;5135951;27;20098;-79
2021/08/01 04:38:42;;;;;;;16.65;8.02;;;;;;;;;;5154906;27;20025;-80
2021/08/01 04:41:08;;;;;;;10.75;7.85;;;;;;;;;;5158136;27;20362;-80
2021/08/01 04:43:34;;;;;;;15.73;9.40;;;;;;;;;;5140102;27;20041;-80
2021/08/01 04:45:59;;;;;;;16.23;11.00;;;;;;;;;;5158602;27;20415;-79
2021/08/01 04:48:25;;;;;;;13.77;10.90;;;;;;;;;;5158564;27;20427;-80
2021/08/01 04:50:51;;;;;;;12.50;11.20;;;;;;;;;;5122820;27;20015;-79
2021/08/01 04:53:16;;;;;;;13.05;10.75;;;;;;;;;;5119404;27;20019;-79
2021/08/01 04:55:42;;;;;;;11.95;8.25;;;;;;;;;;5137785;27;20386;-80
2021/08/01 04:58:07;;;;;;;9.98;8.07;;;;;;;;;;5137661;27;20370;-80
2021/08/01 05:00:33;;;;;;;13.90;9.50;;;;;;;;;;5137528;27;20031;-79
2021/08/01 05:03:00;;;;;;;11.05;9.90;;;;;;;;;;5137550;27;20034;-80
2021/08/01 05:05:26;;;;;;;10.70;9.57;;;;;;;;;;5137842;27;20026;-80
2021/08/01 05:07:52;;;;;;;11.20;8.80;;;;;;;;;;5137542;27;20023;-80
2021/08/01 05:10:17;;;;;;;13.25;10.38;;;;;;;;;;5138069;27;20019;-80
2021/08/01 05:12:43;;;;;;;11.50;9.75;;;;;;;;;;5137552;27;20027;-80
2021/08/01 05:15:09;;;;;;;12.40;10.02;;;;;;;;;;5137496;27;20050;-80
2021/08/01 05:17:35;;;;;;;13.63;9.88;;;;;;;;;;5137086;27;20054;-80
2021/08/01 05:20:00;;;;;;;14.55;8.75;;;;;;;;;;5137514;27;20027;-80
2021/08/01 05:22:26;;;;;;;13.73;7.45;;;;;;;;;;5137173;27;20023;-80
2021/08/01 05:24:52;;;;;;;12.55;8.70;;;;;;;;;;5137424;27;20015;-80
2021/08/01 05:27:17;;;;;;;15.43;9.75;;;;;;;;;;5142798;27;20045;-85
2021/08/01 05:29:44;;;;;;;16.15;9.50;;;;;;;;;;5147291;27;20023;-80
2021/08/01 05:32:09;;;;;;;13.85;8.93;;;;;;;;;;5138950;27;20062;-81
2021/08/01 05:34:35;;;;;;;11.85;9.35;;;;;;;;;;5137985;27;20060;-81
2021/08/01 05:37:01;;;;;;;10.48;6.32;;;;;;;;;;5138234;27;20382;-81
2021/08/01 05:39:27;;;;;;;11.75;9.02;;;;;;;;;;5138584;27;20027;-80
2021/08/01 05:41:52;;;;;;;18.90;10.13;;;;;;;;;;5139442;27;20019;-82
2021/08/01 05:44:18;;;;;;;11.63;8.95;;;;;;;;;;5137693;27;20050;-81
2021/08/01 05:46:44;;;;;;;13.60;7.82;;;;;;;;;;5137359;27;20103;-81
2021/08/01 05:49:09;;;;;;;11.00;7.65;;;;;;;;;;5137193;27;20098;-82
2021/08/01 05:51:38;;;;;;;12.27;8.38;;;;;;;;;;5136783;27;20027;-81
2021/08/01 05:54:03;;;;;;;8.25;6.88;;;;;;;;;;5139560;27;20031;-83
2021/08/01 05:56:29;;;;;;;11.23;4.30;;;;;;;;;;5146631;27;20084;-81
2021/08/01 05:58:54;;;;;;;9.68;6.15;;;;;;;;;;5139880;27;20031;-81
2021/08/01 06:01:20;;;;;;;8.77;7.45;;;;;;;;;;5138329;27;20087;-80
2021/08/01 06:03:47;;;;;;;7.85;6.30;;;;;;;;;;5136698;27;20403;-80
2021/08/01 06:06:25;;;;;;;11.43;6.65;;;;;;;;;;5136323;27;20023;-80
2021/08/01 06:08:52;;;;;;;13.25;5.10;;;;;;;;;;5136467;27;20023;-81
2021/08/01 06:11:18;;;;;;;7.30;4.28;;;;;;;;;;5117744;27;20463;-80
2021/08/01 06:13:44;;;;;;;12.32;4.82;;;;;;;;;;5136156;27;20064;-80
2021/08/01 06:16:11;;;;;;;7.55;6.53;;;;;;;;;;5136013;27;20099;-80
2021/08/01 06:18:37;;;;;;;7.43;4.32;;;;;;;;;;5117564;27;20043;-79
2021/08/01 06:21:07;;;;;;;11.45;5.97;;;;;;;;;;5140715;27;20027;-78
2021/08/01 06:23:34;;;;;;;8.40;4.30;;;;;;;;;;5136303;27;20020;-79
2021/08/01 06:26:00;;;;;;;8.40;4.32;;;;;;;;;;5136096;27;20030;-79
2021/08/01 06:28:25;;;;;;;8.75;5.32;;;;;;;;;;5136151;27;20020;-79
2021/08/01 06:30:51;;;;;;;9.73;6.25;;;;;;;;;;5135851;27;20042;-80
2021/08/01 06:33:17;;;;;;;11.63;4.68;;;;;;;;;;5135771;27;20027;-80
2021/08/01 06:35:43;;;;;;;9.43;4.47;;;;;;;;;;5136247;27;20023;-80
2021/08/01 06:38:08;;;;;;;10.85;7.88;;;;;;;;;;5135864;27;20080;-81
2021/08/01 06:40:34;;;;;;;12.50;5.90;;;;;;;;;;5118375;27;20057;-80
2021/08/01 06:42:59;;;;;;;9.85;6.72;;;;;;;;;;5136632;27;20475;-80
2021/08/01 06:45:25;;;;;;;13.20;4.68;;;;;;;;;;5150742;27;20026;-81
2021/08/01 06:47:51;;;;;;;9.27;5.20;;;;;;;;;;5161258;27;20489;-80
2021/08/01 06:50:19;;;;;;;11.20;7.72;;;;;;;;;;5138546;27;20109;-80
2021/08/01 06:52:46;;;;;;;8.85;6.50;;;;;;;;;;5134113;27;20027;-81
2021/08/01 06:55:12;;;;;;;11.95;7.40;;;;;;;;;;5133684;27;20102;-80
2021/08/01 06:57:38;;;;;;;9.52;6.07;;;;;;;;;;5133552;27;20485;-80
2021/08/01 07:00:05;;;;;;;11.43;7.38;;;;;;;;;;5133651;27;20022;-80
2021/08/01 07:02:31;;;;;;;9.38;6.78;;;;;;;;;;5134151;27;20445;-80
2021/08/01 07:04:58;;;;;;;13.38;7.45;;;;;;;;;;5135287;27;20062;-79
2021/08/01 07:07:23;;;;;;;13.52;6.38;;;;;;;;;;5135506;27;20030;-79
2021/08/01 07:09:49;;;;;;;15.65;5.30;;;;;;;;;;5116747;27;20031;-80
2021/08/01 07:12:16;;;;;;;9.75;6.82;;;;;;;;;;5134935;27;20015;-80
2021/08/01 07:14:42;;;;;;;7.80;6.05;;;;;;;;;;5146109;27;20069;-80
2021/08/01 07:17:08;;;;;;;9.73;4.38;;;;;;;;;;5135242;27;20047;-79
2021/08/01 07:19:34;;;;;;;9.73;4.47;;;;;;;;;;5134979;27;20029;-80
2021/08/01 07:21:59;;;;;;;9.70;3.47;;;;;;;;;;5135059;27;20023;-81
2021/08/01 07:24:25;;;;;;;10.82;5.00;;;;;;;;;;5134849;27;20489;-80
2021/08/01 07:26:53;;;;;;;9.52;5.18;;;;;;;;;;5134852;27;20023;-80
2021/08/01 07:29:19;;;;;;;13.77;6.30;;;;;;;;;;5134996;27;20382;-80
2021/08/01 07:31:44;;;;;;;8.32;3.90;;;;;;;;;;5135373;27;20059;-80
2021/08/01 07:34:10;;;;;;;8.90;4.25;;;;;;;;;;5134788;27;20479;-79
2021/08/01 07:36:36;;;;;;;7.90;4.55;;;;;;;;;;5135356;27;20034;-79
2021/08/01 07:39:02;;;;;;;10.27;4.90;;;;;;;;;;5116717;27;20027;-81
2021/08/01 07:41:28;;;;;;;10.55;3.88;;;;;;;;;;5134856;27;20026;-80
2021/08/01 07:43:53;;;;;;;11.00;5.00;;;;;;;;;;5134697;27;20023;-80
2021/08/01 07:46:19;;;;;;;8.55;3.72;;;;;;;;;;5135088;27;20042;-81
2021/08/01 07:48:45;;;;;;;15.85;4.40;;;;;;;;;;5135434;27;20352;-81
2021/08/01 07:51:11;;;;;;;9.43;4.90;;;;;;;;;;5137542;27;20026;-80
2021/08/01 07:53:37;;;;;;;9.10;4.13;;;;;;;;;;5134537;28;20023;-81
2021/08/01 07:56:03;;;;;;;8.27;4.60;;;;;;;;;;5134830;28;20027;-81
2021/08/01 08:10:15;;;;;;;8.25;3.22;;;;;;;;;;5056088;27;1613482;-79
2021/08/01 08:12:40;;;;;;;13.52;4.47;;;;;;;;;;5090894;28;20047;-81
2021/08/01 08:15:08;;;;;;;9.57;4.32;;;;;;;;;;5090958;28;20024;-80
2021/08/01 08:17:34;;;;;;;8.77;4.78;;;;;;;;;;5090874;28;20020;-80
2021/08/01 08:20:01;;;;;;;10.48;3.53;;;;;;;;;;5090872;28;20066;-79
2021/08/01 08:22:27;;;;;;;9.77;4.88;;;;;;;;;;5072845;28;20426;-89
2021/08/01 08:24:53;;;;;;;6.30;4.05;;;;;;;;;;5090700;28;20082;-87
2021/08/01 08:27:18;;;;;;;11.63;3.97;;;;;;;;;;5090746;28;20028;-86
2021/08/01 08:29:44;;;;;;;7.55;3.33;;;;;;;;;;5091419;28;20166;-88
2021/08/01 08:32:10;;;;;;;6.45;3.88;;;;;;;;;;5092898;28;20043;-84
2021/08/01 08:34:36;;;;;;;6.80;3.05;;;;;;;;;;5092616;28;20021;-86
2021/08/01 08:37:05;;;;;;;8.27;2.88;;;;;;;;;;5092297;28;20035;-87
2021/08/01 08:39:33;;;;;;;7.88;4.80;;;;;;;;;;5092943;28;20430;-79
2021/08/01 08:42:00;;;;;;;9.25;4.03;;;;;;;;;;5091061;28;20024;-86
2021/08/01 08:44:26;;;;;;;8.20;3.45;;;;;;;;;;5091556;28;20016;-87
2021/08/01 08:46:54;;;;;;;7.00;3.35;;;;;;;;;;5091298;28;20471;-81
2021/08/01 08:49:21;;;;;;;7.55;3.40;;;;;;;;;;5090335;28;20488;-82
2021/08/01 08:51:49;;;;;;;9.93;2.75;;;;;;;;;;5090057;28;20035;-79
2021/08/01 08:54:17;;;;;;;10.30;3.17;;;;;;;;;;5090033;28;20489;-82
2021/08/01 08:56:45;;;;;;;9.13;4.65;;;;;;;;;;5092975;28;20024;-88
2021/08/01 08:59:13;;;;;;;7.80;3.38;;;;;;;;;;5097410;28;20024;-84
2021/08/01 09:01:39;;;;;;;10.57;4.45;;;;;;;;;;5082750;28;20365;-84
2021/08/01 09:04:11;;;;;;;10.32;3.10;;;;;;;;;;5100562;28;20039;-75
2021/08/01 09:06:37;;;;;;;8.90;3.42;;;;;;;;;;5098752;28;20052;-78
2021/08/01 09:09:03;;;;;;;8.77;3.92;;;;;;;;;;5097522;28;20043;-77
2021/08/01 09:11:29;;;;;;;8.15;3.55;;;;;;;;;;5083455;28;20059;-78
2021/08/01 09:13:58;;;;;;;10.95;3.33;;;;;;;;;;5075427;28;20103;-79
2021/08/01 09:16:46;;;;;;;10.40;4.60;;;;;;;;;;5075609;28;20035;-80
2021/08/01 09:19:32;;;;;;;14.95;4.10;;;;;;;;;;5068009;28;20040;-82
2021/08/01 09:22:30;;;;;;;13.10;5.05;;;;;;;;;;5046696;28;20040;-81
2021/08/01 09:24:56;;;;;;;11.38;5.07;;;;;;;;;;5006766;28;20372;-80
2021/08/01 09:27:34;;;;;;;11.27;4.38;;;;;;;;;;5055151;28;20415;-79
2021/08/01 09:30:01;;;;;;;10.13;4.55;;;;;;;;;;5055194;28;20021;-79
2021/08/01 09:32:30;;;;;;;11.18;5.30;;;;;;;;;;5055663;28;20025;-80
2021/08/01 09:34:56;;;;;;;13.32;5.18;;;;;;;;;;5056023;28;20025;-80
2021/08/01 09:37:35;;;;;;;11.80;4.35;;;;;;;;;;5056778;28;20079;-85
2021/08/01 09:40:11;;;;;;;9.57;4.75;;;;;;;;;;5038292;28;20025;-81
2021/08/01 09:42:45;;;;;;;7.97;4.07;;;;;;;;;;5055872;28;20017;-81
2021/08/01 09:45:17;;;;;;;9.73;4.63;;;;;;;;;;5040768;28;20035;-82
2021/08/01 09:47:44;;;;;;;9.35;4.80;;;;;;;;;;5057359;28;20021;-82
2021/08/01 09:50:10;;;;;;;11.73;4.75;;;;;;;;;;5057792;28;20021;-83
2021/08/01 09:52:36;;;;;;;10.90;4.15;;;;;;;;;;5058081;28;20022;-81
2021/08/01 09:55:02;;;;;;;9.93;3.95;;;;;;;;;;5063056;28;20036;-83
2021/08/01 09:57:27;;;;;;;12.73;4.53;;;;;;;;;;5056191;28;20472;-84
2021/08/01 10:00:10;;;;;;;11.02;5.50;;;;;;;;;;5038535;28;20385;-81
2021/08/01 10:02:40;;;;;;;9.05;3.30;;;;;;;;;;5061094;28;20112;-89
2021/08/01 10:05:24;;;;;;;11.13;4.57;;;;;;;;;;5056883;28;20033;-87
2021/08/01 10:07:51;;;;;;;10.55;4.38;;;;;;;;;;5055375;28;20025;-87
2021/08/01 10:10:20;;;;;;;13.80;4.65;;;;;;;;;;5055231;28;20118;-88
2021/08/01 10:12:47;;;;;;;7.40;3.72;;;;;;;;;;5055295;28;20502;-87
2021/08/01 10:15:14;;;;;;;9.68;3.85;;;;;;;;;;5055090;28;20108;-85
2021/08/01 10:17:40;;;;;;;6.53;3.63;;;;;;;;;;5055152;28;20021;-87
2021/08/01 10:20:07;;;;;;;13.48;4.50;;;;;;;;;;5055304;28;20021;-88
2021/08/01 10:22:38;;;;;;;12.50;2.72;;;;;;;;;;5020020;28;20477;-91
2021/08/01 10:25:10;;;;;;;7.10;3.10;;;;;;;;;;5055278;28;20036;-87
2021/08/01 10:27:41;;;;;;;7.97;3.45;;;;;;;;;;5054979;28;20020;-87
2021/08/01 10:30:07;;;;;;;9.43;3.40;;;;;;;;;;5054929;28;20025;-87
2021/08/01 10:32:36;;;;;;;8.10;3.40;;;;;;;;;;5052647;28;20085;-90
2021/08/01 10:35:06;;;;;;;6.60;2.95;;;;;;;;;;5074796;28;20376;-87
2021/08/01 10:37:45;;;;;;;7.63;2.58;;;;;;;;;;5074680;28;20020;-85
2021/08/01 10:40:14;;;;;;;9.25;3.15;;;;;;;;;;5074775;28;20053;-86
2021/08/01 10:42:40;;;;;;;;;;;;;;;;;;5058829;28;20060;-87
2021/08/01 10:45:07;;;;;;;11.15;3.10;;;;;;;;;;5075824;28;19958;-85
2021/08/01 10:47:35;;;;;;;11.77;2.67;;;;;;;;;;5074805;28;20027;-84
2021/08/01 10:50:02;;;;;;;8.45;3.25;;;;;;;;;;5074681;28;20496;-88
2021/08/01 10:52:30;;;;;;;7.40;2.30;;;;;;;;;;5040010;28;20498;-83
2021/08/01 10:55:01;;;;;;;10.52;3.08;;;;;;;;;;5074634;28;20035;-83
2021/08/01 10:57:27;;;;;;;10.25;2.92;;;;;;;;;;5074564;28;20028;-81
2021/08/01 10:59:53;;;;;;;8.77;2.60;;;;;;;;;;5074647;28;20024;-78
2021/08/01 11:02:29;;;;;;;8.52;3.80;;;;;;;;;;5074774;28;20440;-89
2021/08/01 11:05:39;;;;;;;6.60;2.15;;;;;;;;;;5088434;28;20039;-86
2021/08/01 11:08:07;;;;;;;7.80;2.78;;;;;;;;;;4985525;28;20043;-83
2021/08/01 11:10:34;;;;;;;7.05;2.60;;;;;;;;;;4973504;28;20034;-85
2021/08/01 11:13:00;;;;;;;8.85;3.85;;;;;;;;;;4974037;28;20412;-83
2021/08/01 11:15:46;;;;;;;9.85;2.78;;;;;;;;;;4977699;28;20487;-91
2021/08/01 11:18:11;;;;;;;15.23;3.85;;;;;;;;;;4974954;28;20122;-85
2021/08/01 11:20:43;;;;;;;5.43;2.50;;;;;;;;;;4974852;28;20050;-85
2021/08/01 11:23:09;;;;;;;9.13;5.20;;;;;;;;;;4973586;28;20413;-82
2021/08/01 11:25:42;;;;;;;8.52;2.83;;;;;;;;;;4983189;28;20046;-85
2021/08/01 11:28:08;;;;;;;7.45;2.90;;;;;;;;;;4991292;28;20023;-87
2021/08/01 11:30:52;;;;;;;10.20;2.75;;;;;;;;;;4978892;28;20031;-85
2021/08/01 11:33:35;;;;;;;7.75;2.63;;;;;;;;;;4960872;28;20031;-81
2021/08/01 11:36:13;;;;;;;4.95;2.50;;;;;;;;;;4974890;28;20046;-82
2021/08/01 11:38:54;;;;;;;8.43;3.72;;;;;;;;;;4966815;28;20054;-86
2021/08/01 11:44:20;;;;;;;9.10;4.78;;;;;;;;;;4990216;28;20074;-82
2021/08/01 11:47:07;;;;;;;7.22;2.65;;;;;;;;;;5074285;28;20052;-81
2021/08/01 11:49:37;;;;;;;6.55;2.90;;;;;;;;;;5073674;28;20090;-83
2021/08/01 11:52:05;;;;;;;5.40;2.22;;;;;;;;;;5074407;28;20048;-84
2021/08/01 11:54:34;;;;;;;6.45;2.08;;;;;;;;;;5074168;28;20099;-80
2021/08/01 11:57:10;;;;;;;6.32;2.25;;;;;;;;;;5074282;28;20054;-80
2021/08/01 11:59:37;;;;;;;8.88;1.83;;;;;;;;;;5073856;28;20032;-84
2021/08/01 12:02:09;;;;;;;6.47;2.22;;;;;;;;;;5078789;28;20031;-79
2021/08/01 12:04:35;;;;;;;7.07;2.60;;;;;;;;;;5058948;28;20033;-80
2021/08/01 12:07:01;;;;;;;6.00;2.20;;;;;;;;;;5074662;28;20063;-81
2021/08/01 12:09:29;;;;;;;8.60;2.63;;;;;;;;;;5076336;28;20044;-81
2021/08/01 12:11:59;;;;;;;8.00;2.85;;;;;;;;;;5076345;28;20027;-79
2021/08/01 12:14:36;;;;;;;4.63;2.08;;;;;;;;;;5074029;28;20032;-80
2021/08/01 12:17:03;;;;;;;4.15;1.77;;;;;;;;;;5075527;28;20025;-79
2021/08/01 12:19:40;;;;;;;7.55;2.00;;;;;;;;;;5073695;28;20115;-78
2021/08/01 12:22:14;;;;;;;10.07;2.17;;;;;;;;;;5074904;28;20021;-79
2021/08/01 12:24:48;;;;;;;5.07;2.20;;;;;;;;;;5077018;28;20031;-81
2021/08/01 12:27:16;;;;;;;8.25;2.38;;;;;;;;;;5073376;28;20109;-78
2021/08/01 12:29:44;;;;;;;4.13;2.17;;;;;;;;;;5074129;28;20036;-81
2021/08/01 12:32:31;;;;;;;9.30;1.67;;;;;;;;;;5074365;28;20048;-81
2021/08/01 12:35:03;;;;;;;9.20;2.33;;;;;;;;;;5073575;28;20095;-79
2021/08/01 12:37:30;;;;;;;7.10;3.03;;;;;;;;;;5073138;28;20024;-79
2021/08/01 12:39:56;;;;;;;6.30;2.70;;;;;;;;;;5073289;28;20391;-78
2021/08/01 12:42:25;;;;;;;4.60;2.22;;;;;;;;;;5073177;28;20016;-78
2021/08/01 12:44:55;;;;;;;;;;;;;;;;;;5074229;28;20495;-79
2021/08/01 12:47:21;;;;;;;9.15;1.98;;;;;;;;;;5077190;28;19948;-78
2021/08/01 12:49:48;;;;;;;8.43;2.25;;;;;;;;;;5076640;28;20067;-80
2021/08/01 12:52:21;;;;;;;5.13;2.25;;;;;;;;;;5076849;28;20020;-79
2021/08/01 12:54:48;;;;;;;7.95;2.28;;;;;;;;;;5076763;28;20063;-79
2021/08/01 12:57:14;;;;;;;11.73;2.20;;;;;;;;;;5076659;28;20028;-78
2021/08/01 12:59:39;;;;;;;6.95;2.10;;;;;;;;;;5076492;28;20053;-79
2021/08/01 13:02:05;;;;;;;7.03;3.38;;;;;;;;;;5076577;28;20383;-78
2021/08/01 13:04:44;;;;;;;8.55;2.05;;;;;;;;;;5077232;28;20017;-78
2021/08/01 13:07:10;;;;;;;7.78;2.72;;;;;;;;;;5076783;28;20031;-78
2021/08/01 13:09:37;;;;;;;8.55;3.17;;;;;;;;;;5076268;28;20132;-79
2021/08/01 13:12:13;;;;;;;4.78;3.63;;;;;;;;;;5076401;28;20445;-81
2021/08/01 13:14:44;;;;;;;9.10;2.25;;;;;;;;;;5077144;28;20054;-83
2021/08/01 13:17:13;;;;;;;7.43;2.33;;;;;;;;;;5059988;28;20027;-78
2021/08/01 13:19:41;;;;;;;6.88;2.15;;;;;;;;;;5076335;28;20082;-79
2021/08/01 13:22:14;;;;;;;7.47;2.80;;;;;;;;;;5077880;28;20024;-79
2021/08/01 13:24:54;;;;;;;7.43;2.50;;;;;;;;;;5076307;28;20017;-81
2021/08/01 13:27:23;;;;;;;8.70;2.63;;;;;;;;;;5078602;28;20436;-78
2021/08/01 13:29:50;;;;;;;7.13;2.47;;;;;;;;;;5076468;28;20028;-78
2021/08/01 13:32:21;;;;;;;7.28;2.67;;;;;;;;;;5075738;28;20029;-79
2021/08/01 13:34:49;;;;;;;7.25;2.17;;;;;;;;;;5077720;28;20028;-77
2021/08/01 13:37:29;;;;;;;8.45;2.03;;;;;;;;;;5075316;28;20105;-78
2021/08/01 13:39:57;;;;;;;9.38;3.67;;;;;;;;;;5076023;28;20379;-80
2021/08/01 13:42:36;;;;;;;8.95;2.83;;;;;;;;;;5078152;28;20487;-78
2021/08/01 13:45:06;;;;;;;10.65;2.28;;;;;;;;;;5076436;28;20036;-79
2021/08/01 13:47:33;;;;;;;5.53;1.65;;;;;;;;;;5076412;28;20028;-79
2021/08/01 13:50:09;;;;;;;4.53;1.80;;;;;;;;;;5076452;28;20111;-78
2021/08/01 13:52:36;;;;;;;7.47;3.33;;;;;;;;;;5076525;28;20028;-78
2021/08/01 13:55:04;;;;;;;9.25;2.90;;;;;;;;;;5075673;28;20029;-79
2021/08/01 13:57:30;;;;;;;11.48;2.45;;;;;;;;;;5075355;28;20103;-79
2021/08/01 13:59:57;;;;;;;7.57;2.60;;;;;;;;;;5075370;28;20111;-81
2021/08/01 14:02:25;;;;;;;7.05;2.10;;;;;;;;;;5075423;28;20029;-82
2021/08/01 14:04:51;;;;;;;7.28;1.90;;;;;;;;;;5076097;28;20107;-79
2021/08/01 14:07:17;;;;;;;7.47;2.08;;;;;;;;;;5075597;28;20024;-78
2021/08/01 14:09:43;;;;;;;7.63;1.70;;;;;;;;;;5074346;28;20538;-78
2021/08/01 14:12:09;;;;;;;7.85;2.00;;;;;;;;;;5075345;28;20024;-82
2021/08/01 14:14:36;;;;;;;5.63;1.55;;;;;;;;;;5075878;28;20050;-84
2021/08/01 14:17:04;;;;;;;6.20;1.75;;;;;;;;;;5075419;28;20021;-79
2021/08/01 14:19:30;;;;;;;7.10;2.03;;;;;;;;;;5076369;28;20025;-82
2021/08/01 14:21:56;;;;;;;4.85;1.50;;;;;;;;;;5075173;28;20052;-87
2021/08/01 14:24:22;;;;;;;4.78;1.60;;;;;;;;;;5057444;28;20024;-79
2021/08/01 14:26:50;;;;;;;6.97;1.67;;;;;;;;;;5076237;28;20024;-79
2021/08/01 14:29:22;;;;;;;8.25;2.10;;;;;;;;;;5075800;28;20480;-79
2021/08/01 14:31:50;;;;;;;5.95;1.70;;;;;;;;;;5076250;28;20460;-79
2021/08/01 14:34:21;;;;;;;11.32;2.65;;;;;;;;;;5074748;28;20070;-80
2021/08/01 14:36:47;;;;;;;5.75;1.98;;;;;;;;;;5074939;28;20472;-80
2021/08/01 14:39:16;;;;;;;7.25;2.08;;;;;;;;;;5076373;28;20041;-81
2021/08/01 14:41:42;;;;;;;8.95;2.30;;;;;;;;;;5075475;28;20033;-82
2021/08/01 14:44:09;;;;;;;14.18;3.30;;;;;;;;;;5075303;28;20085;-80
2021/08/01 14:46:38;;;;;;;9.52;1.98;;;;;;;;;;5075461;28;20028;-80
2021/08/01 14:49:10;;;;;;;6.80;2.50;;;;;;;;;;5075666;28;20039;-80
2021/08/01 14:54:27;;;;;;;7.78;2.50;;;;;;;;;;5074884;28;20039;-80
2021/08/01 14:57:39;;;;;;;6.78;2.20;;;;;;;;;;5057650;28;20483;-82
2021/08/01 15:00:12;;;;;;;8.20;2.53;;;;;;;;;;5074993;28;20028;-80